Time;durP1;ratioP1;P1;durP2;ratioP2;P2;SDS_P1;SDS_P2;PMS_P1;PMS_P2;Temp;Humidity;BMP_temperature;BMP_pressure;BME280_temperature;BME280_humidity;BME280_pressure;Samples;Min_cycle;Max_cycle;Signal;HPM_P1;HPM_P2
2022/10/20 00:01:29;;;;;;;6.95;3.08;;;9.60;97.20;;;;;;5076067;28;20045;-69
2022/10/20 00:03:56;;;;;;;6.07;3.85;;;9.60;97.20;;;;;;5076397;28;20460;-69
2022/10/20 00:06:27;;;;;;;4.88;3.25;;;9.50;97.20;;;;;;5075436;28;20372;-69
2022/10/20 00:08:55;;;;;;;6.00;3.22;;;9.60;97.30;;;;;;5082071;28;20024;-69
2022/10/20 00:11:22;;;;;;;6.80;3.13;;;9.50;97.30;;;;;;5086870;28;20032;-69
2022/10/20 00:13:51;;;;;;;5.10;3.30;;;9.50;97.20;;;;;;5077455;28;20101;-69
2022/10/20 00:16:17;;;;;;;4.57;3.17;;;9.50;97.30;;;;;;5073475;28;20099;-69
2022/10/20 00:18:44;;;;;;;5.45;3.03;;;9.40;97.30;;;;;;5070886;28;20029;-69
2022/10/20 00:21:16;;;;;;;4.70;3.40;;;9.40;97.30;;;;;;5076007;28;20507;-69
2022/10/20 00:23:42;;;;;;;4.43;3.13;;;9.40;97.30;;;;;;5054708;28;20024;-69
2022/10/20 00:26:11;;;;;;;3.95;3.20;;;9.40;97.30;;;;;;5058087;28;20028;-69
2022/10/20 00:28:37;;;;;;;5.25;3.42;;;9.30;97.40;;;;;;5073742;28;20035;-69
2022/10/20 00:31:04;;;;;;;6.07;3.80;;;9.30;97.40;;;;;;5076801;28;20112;-69
2022/10/20 00:33:31;;;;;;;6.75;3.10;;;9.20;97.40;;;;;;5073799;28;20041;-69
2022/10/20 00:36:05;;;;;;;4.93;3.38;;;9.20;97.50;;;;;;5066064;28;20029;-68
2022/10/20 00:38:32;;;;;;;5.10;3.33;;;9.20;97.60;;;;;;5054315;28;20353;-69
2022/10/20 00:41:05;;;;;;;5.65;3.15;;;9.20;97.60;;;;;;5066895;28;20044;-68
2022/10/20 00:43:51;;;;;;;4.43;2.80;;;9.20;97.70;;;;;;5074059;28;20029;-70
2022/10/20 00:46:23;;;;;;;6.93;2.90;;;9.20;97.70;;;;;;5077190;28;20028;-70
2022/10/20 00:48:53;;;;;;;5.97;3.75;;;9.20;97.70;;;;;;5094562;28;20498;-70
2022/10/20 00:51:22;;;;;;;7.32;3.58;;;9.20;97.70;;;;;;5090277;28;20166;-70
2022/10/20 00:53:52;;;;;;;4.32;2.70;;;9.10;97.80;;;;;;5093229;28;20024;-70
2022/10/20 00:56:18;;;;;;;5.25;3.25;;;9.10;97.80;;;;;;5076934;28;20467;-70
2022/10/20 00:58:45;;;;;;;4.15;2.97;;;9.00;97.80;;;;;;5073748;28;20044;-70
2022/10/20 01:01:12;;;;;;;4.97;2.80;;;9.00;97.90;;;;;;5074488;28;20058;-69
2022/10/20 01:03:48;;;;;;;3.78;2.42;;;9.00;98.00;;;;;;5093378;28;20024;-69
2022/10/20 01:06:17;;;;;;;4.22;3.17;;;9.00;98.00;;;;;;5084329;28;20058;-69
2022/10/20 01:08:43;;;;;;;4.95;2.83;;;9.00;98.00;;;;;;5092887;28;20475;-69
2022/10/20 01:11:27;;;;;;;5.03;3.03;;;8.90;98.10;;;;;;5078584;28;20047;-70
2022/10/20 01:13:59;;;;;;;5.25;3.10;;;8.90;98.20;;;;;;5092920;28;20028;-71
2022/10/20 01:16:42;;;;;;;6.63;3.40;;;8.90;98.20;;;;;;5072802;28;20036;-70
2022/10/20 01:19:08;;;;;;;5.72;2.80;;;8.90;98.20;;;;;;5071997;28;20036;-70
2022/10/20 01:22:05;;;;;;;5.10;3.05;;;8.90;98.20;;;;;;5077199;28;20028;-70
2022/10/20 01:24:47;;;;;;;7.75;3.35;;;8.90;98.30;;;;;;5094799;28;20020;-70
2022/10/20 01:27:43;;;;;;;5.07;3.30;;;8.80;98.30;;;;;;5079074;28;20067;-71
2022/10/20 01:30:20;;;;;;;5.97;3.33;;;8.80;98.30;;;;;;5077018;28;20040;-70
2022/10/20 01:33:12;;;;;;;4.85;3.10;;;8.80;98.40;;;;;;5096212;28;20096;-70
2022/10/20 01:36:11;;;;;;;8.20;3.47;;;8.80;98.40;;;;;;5101726;28;20036;-70
2022/10/20 01:39:32;;;;;;;5.40;3.00;;;8.80;98.40;;;;;;5058670;28;20039;-68
2022/10/20 01:42:04;;;;;;;4.35;3.10;;;8.70;98.40;;;;;;5064164;28;20052;-68
2022/10/20 01:44:32;;;;;;;3.17;2.75;;;8.80;98.40;;;;;;5093052;28;20104;-68
2022/10/20 01:46:59;;;;;;;5.97;2.83;;;8.70;98.40;;;;;;5085079;28;20024;-68
2022/10/20 01:49:26;;;;;;;4.28;2.53;;;8.70;98.40;;;;;;5093829;28;20046;-68
2022/10/20 01:51:51;;;;;;;5.93;2.80;;;8.70;98.40;;;;;;5085952;28;20055;-68
2022/10/20 01:54:25;;;;;;;6.40;2.88;;;8.70;98.40;;;;;;5075533;28;20447;-68
2022/10/20 01:56:59;;;;;;;3.60;2.53;;;8.70;98.40;;;;;;5073609;28;20025;-68
2022/10/20 01:59:47;;;;;;;5.90;2.67;;;8.70;98.50;;;;;;5071476;28;20087;-68
2022/10/20 02:02:42;;;;;;;8.80;4.25;;;8.70;98.50;;;;;;5067257;28;20044;-68
2022/10/20 02:05:36;;;;;;;6.13;2.70;;;8.60;98.40;;;;;;5090972;28;20487;-68
2022/10/20 02:08:33;;;;;;;5.47;2.80;;;8.60;98.40;;;;;;5073427;28;20032;-68
2022/10/20 02:11:02;;;;;;;5.90;2.95;;;8.60;98.40;;;;;;5087078;28;20032;-68
2022/10/20 02:13:30;;;;;;;4.63;3.13;;;8.50;98.40;;;;;;5075555;28;20025;-68
2022/10/20 02:16:00;;;;;;;4.47;3.33;;;8.50;98.40;;;;;;5072144;28;20033;-68
2022/10/20 02:18:30;;;;;;;6.35;3.22;;;8.50;98.40;;;;;;5084382;28;20058;-68
2022/10/20 02:20:59;;;;;;;5.07;3.10;;;8.40;98.40;;;;;;5081388;28;20041;-68
2022/10/20 02:23:27;;;;;;;3.83;2.80;;;8.40;98.50;;;;;;5075256;28;20070;-69
2022/10/20 02:25:54;;;;;;;5.28;3.20;;;8.40;98.60;;;;;;5085139;28;20066;-68
2022/10/20 02:28:21;;;;;;;5.03;2.88;;;8.40;98.60;;;;;;5084214;28;20040;-68
2022/10/20 02:30:47;;;;;;;5.30;3.08;;;8.40;98.70;;;;;;5087600;28;20028;-68
2022/10/20 02:33:15;;;;;;;5.00;3.00;;;8.30;98.60;;;;;;5066564;28;20067;-68
2022/10/20 02:35:48;;;;;;;7.47;3.30;;;8.30;98.70;;;;;;5062152;28;20486;-68
2022/10/20 02:38:14;;;;;;;5.37;3.20;;;8.40;98.80;;;;;;5081453;28;20067;-68
2022/10/20 02:40:41;;;;;;;5.35;2.90;;;8.40;98.80;;;;;;5079886;28;20063;-68
2022/10/20 02:43:06;;;;;;;4.55;2.72;;;8.30;98.70;;;;;;5069836;28;20490;-69
2022/10/20 02:45:32;;;;;;;6.18;3.30;;;8.40;98.70;;;;;;5054893;28;20107;-69
2022/10/20 02:47:57;;;;;;;4.90;2.75;;;8.30;98.70;;;;;;5082617;28;20036;-69
2022/10/20 02:50:23;;;;;;;5.43;2.90;;;8.40;98.80;;;;;;5069929;28;20105;-69
2022/10/20 02:52:49;;;;;;;5.32;3.15;;;8.40;98.90;;;;;;5084294;28;20031;-69
2022/10/20 02:55:14;;;;;;;4.93;3.00;;;8.40;98.90;;;;;;5077862;28;20070;-69
2022/10/20 02:57:40;;;;;;;5.80;3.03;;;8.40;98.90;;;;;;5074181;28;20028;-68
2022/10/20 03:00:07;;;;;;;4.82;2.92;;;8.40;98.90;;;;;;5062643;28;20077;-69
2022/10/20 03:02:33;;;;;;;5.90;3.03;;;8.40;98.90;;;;;;5075825;28;20063;-69
2022/10/20 03:04:59;;;;;;;4.82;2.70;;;8.40;98.90;;;;;;5070135;28;20479;-69
2022/10/20 03:07:24;;;;;;;5.95;2.78;;;8.40;98.90;;;;;;5070980;28;20029;-69
2022/10/20 03:09:50;;;;;;;3.95;2.63;;;8.40;98.90;;;;;;5070247;28;20464;-69
2022/10/20 03:12:16;;;;;;;4.07;2.22;;;8.40;98.90;;;;;;5069475;28;20024;-69
2022/10/20 03:14:41;;;;;;;4.38;2.83;;;8.40;98.90;;;;;;5077419;28;20035;-69
2022/10/20 03:17:08;;;;;;;5.80;2.90;;;8.30;98.90;;;;;;5076047;28;20429;-69
2022/10/20 03:19:34;;;;;;;4.85;2.65;;;8.30;98.90;;;;;;5071292;28;20048;-68
2022/10/20 03:21:59;;;;;;;4.75;2.58;;;8.30;98.90;;;;;;5071291;28;20454;-69
2022/10/20 03:24:25;;;;;;;4.32;2.88;;;8.30;98.80;;;;;;5071214;28;20078;-69
2022/10/20 03:26:51;;;;;;;10.05;3.92;;;8.20;98.80;;;;;;5071306;28;20119;-69
2022/10/20 03:29:16;;;;;;;3.92;2.65;;;8.20;98.90;;;;;;5070445;28;20318;-69
2022/10/20 03:31:42;;;;;;;5.45;3.13;;;8.20;99.00;;;;;;5070930;28;20032;-69
2022/10/20 03:34:09;;;;;;;4.90;2.72;;;8.20;98.90;;;;;;5085736;28;20040;-68
2022/10/20 03:36:34;;;;;;;5.20;2.65;;;8.20;99.00;;;;;;5091776;28;20028;-68
2022/10/20 03:39:00;;;;;;;4.35;2.72;;;8.20;99.00;;;;;;5084111;28;20482;-69
2022/10/20 03:41:25;;;;;;;5.75;3.05;;;8.10;99.00;;;;;;5091692;28;20120;-69
2022/10/20 03:43:51;;;;;;;4.28;2.67;;;8.10;99.10;;;;;;5084469;28;20590;-69
2022/10/20 03:46:16;;;;;;;4.68;2.70;;;8.10;99.10;;;;;;5086414;28;20024;-70
2022/10/20 03:48:42;;;;;;;4.90;2.88;;;8.10;99.20;;;;;;5076436;28;20061;-69
2022/10/20 03:51:09;;;;;;;5.65;3.40;;;8.10;99.20;;;;;;5089305;28;20016;-69
2022/10/20 03:53:35;;;;;;;5.85;2.80;;;8.10;99.20;;;;;;5080276;28;20115;-69
2022/10/20 03:56:09;;;;;;;5.85;2.88;;;8.10;99.20;;;;;;5091004;28;20128;-70
2022/10/20 03:58:34;;;;;;;4.53;2.90;;;8.10;99.20;;;;;;5068591;28;20028;-69
2022/10/20 04:01:01;;;;;;;4.57;2.75;;;8.10;99.20;;;;;;5082198;28;20381;-69
2022/10/20 04:03:27;;;;;;;6.85;3.00;;;8.10;99.20;;;;;;5069171;28;20101;-68
2022/10/20 04:05:53;;;;;;;5.60;2.70;;;8.10;99.20;;;;;;5070618;28;20488;-69
2022/10/20 04:08:19;;;;;;;5.28;3.03;;;8.00;99.10;;;;;;5072061;28;20021;-67
2022/10/20 04:10:44;;;;;;;5.32;2.92;;;8.00;99.10;;;;;;5070829;28;20345;-67
2022/10/20 04:13:10;;;;;;;5.07;3.28;;;8.00;99.10;;;;;;5075530;28;20415;-68
2022/10/20 04:15:36;;;;;;;6.10;2.92;;;8.00;99.10;;;;;;5074456;28;20032;-69
2022/10/20 04:18:01;;;;;;;7.03;3.17;;;7.90;99.00;;;;;;5074847;28;20435;-69
2022/10/20 04:20:27;;;;;;;5.80;3.30;;;7.90;99.00;;;;;;5079245;28;20055;-69
2022/10/20 04:22:53;;;;;;;4.82;3.00;;;7.90;99.10;;;;;;5091365;28;20506;-68
2022/10/20 04:25:18;;;;;;;4.80;3.22;;;7.90;99.20;;;;;;5074283;28;20024;-69
2022/10/20 04:27:45;;;;;;;4.85;2.90;;;7.90;99.20;;;;;;5073773;28;20029;-69
2022/10/20 04:30:11;;;;;;;5.10;3.10;;;7.90;99.20;;;;;;5073411;28;20761;-69
2022/10/20 04:32:36;;;;;;;6.57;3.40;;;7.90;99.20;;;;;;5074206;28;20051;-70
2022/10/20 04:35:02;;;;;;;6.22;3.65;;;7.80;99.20;;;;;;5074126;28;20031;-66
2022/10/20 04:37:28;;;;;;;4.05;2.88;;;7.80;99.20;;;;;;5085729;28;20020;-68
2022/10/20 04:39:56;;;;;;;6.25;3.65;;;7.90;99.30;;;;;;5075378;28;20044;-68
2022/10/20 04:42:22;;;;;;;5.43;3.20;;;7.80;99.20;;;;;;5074162;28;20040;-69
2022/10/20 04:44:47;;;;;;;5.18;3.35;;;7.80;99.30;;;;;;5072934;28;20025;-68
2022/10/20 04:47:13;;;;;;;7.15;3.80;;;7.80;99.40;;;;;;5073787;28;20077;-68
2022/10/20 04:49:39;;;;;;;7.65;3.95;;;7.80;99.40;;;;;;5087096;28;20119;-69
2022/10/20 04:52:05;;;;;;;6.18;3.70;;;7.80;99.40;;;;;;5094155;28;20031;-69
2022/10/20 04:54:31;;;;;;;5.22;3.53;;;7.80;99.30;;;;;;5088523;28;20076;-68
2022/10/20 04:56:57;;;;;;;7.28;3.72;;;7.70;99.30;;;;;;5092490;28;20051;-68
2022/10/20 04:59:22;;;;;;;6.65;3.83;;;7.70;99.40;;;;;;5084471;28;20036;-69
2022/10/20 05:01:48;;;;;;;6.15;3.90;;;7.80;99.50;;;;;;5090902;28;20043;-70
2022/10/20 05:04:20;;;;;;;4.47;2.95;;;7.70;99.50;;;;;;5072853;28;20036;-70
2022/10/20 05:06:45;;;;;;;5.90;3.25;;;7.70;99.50;;;;;;5073046;28;20383;-70
2022/10/20 05:09:11;;;;;;;6.93;3.67;;;7.70;99.60;;;;;;5082763;28;20028;-69
2022/10/20 05:11:37;;;;;;;6.30;3.35;;;7.70;99.60;;;;;;5088413;28;20029;-70
2022/10/20 05:14:02;;;;;;;6.88;4.00;;;7.70;99.60;;;;;;5075327;28;20071;-69
2022/10/20 05:16:28;;;;;;;6.65;3.45;;;7.70;99.60;;;;;;5073591;28;20352;-70
2022/10/20 05:18:54;;;;;;;7.28;3.60;;;7.70;99.60;;;;;;5076405;28;20070;-70
2022/10/20 05:21:23;;;;;;;5.50;3.80;;;7.70;99.70;;;;;;5073614;28;20488;-69
2022/10/20 05:23:53;;;;;;;7.03;3.85;;;7.70;99.70;;;;;;5074685;28;20032;-68
2022/10/20 05:26:19;;;;;;;7.25;3.60;;;7.70;99.70;;;;;;5073451;28;20748;-68
2022/10/20 05:28:46;;;;;;;6.72;3.58;;;7.70;99.80;;;;;;5077875;28;20035;-69
2022/10/20 05:31:13;;;;;;;7.03;3.92;;;7.60;99.80;;;;;;5073355;28;20384;-69
2022/10/20 05:33:42;;;;;;;6.50;3.58;;;7.70;99.80;;;;;;5072630;28;20564;-69
2022/10/20 05:36:09;;;;;;;7.40;4.25;;;7.60;99.70;;;;;;5073401;28;20040;-67
2022/10/20 05:38:39;;;;;;;6.05;3.78;;;7.60;99.70;;;;;;5072189;28;20021;-68
2022/10/20 05:41:16;;;;;;;7.38;4.13;;;7.60;99.70;;;;;;5071979;28;20036;-68
2022/10/20 05:43:46;;;;;;;7.07;4.10;;;7.60;99.70;;;;;;5072821;28;20431;-67
2022/10/20 05:46:11;;;;;;;8.10;4.53;;;7.50;99.70;;;;;;5071293;28;20115;-68
2022/10/20 05:48:37;;;;;;;8.13;4.05;;;7.50;99.70;;;;;;5071388;28;20103;-68
2022/10/20 05:51:11;;;;;;;8.30;4.65;;;7.50;99.70;;;;;;5072812;28;20064;-68
2022/10/20 05:53:38;;;;;;;7.47;4.22;;;7.50;99.70;;;;;;5074846;28;20049;-68
2022/10/20 05:56:05;;;;;;;7.47;4.13;;;7.50;99.70;;;;;;5093100;28;20028;-68
2022/10/20 05:58:31;;;;;;;7.60;5.18;;;7.50;99.80;;;;;;5075158;28;20039;-68
2022/10/20 06:01:23;;;;;;;7.30;4.13;;;7.50;99.70;;;;;;5093047;28;20039;-68
2022/10/20 06:03:59;;;;;;;5.82;3.92;;;7.40;99.70;;;;;;5082247;28;20039;-68
2022/10/20 06:06:29;;;;;;;6.97;4.97;;;7.40;99.70;;;;;;5093140;28;20024;-69
2022/10/20 06:08:57;;;;;;;6.72;4.43;;;7.50;99.70;;;;;;5082977;28;20058;-69
2022/10/20 06:11:24;;;;;;;8.18;4.25;;;7.40;99.70;;;;;;5092392;28;20024;-69
2022/10/20 06:13:50;;;;;;;7.13;4.25;;;7.40;99.70;;;;;;5071795;28;20029;-69
2022/10/20 06:16:25;;;;;;;8.23;5.18;;;7.50;99.80;;;;;;5071844;28;20031;-68
2022/10/20 06:18:52;;;;;;;6.85;4.18;;;7.50;99.80;;;;;;5075905;28;20043;-70
2022/10/20 06:21:20;;;;;;;7.75;4.80;;;7.50;99.80;;;;;;5092602;28;20035;-69
2022/10/20 06:23:46;;;;;;;9.75;5.22;;;7.50;99.90;;;;;;5077106;28;20024;-69
2022/10/20 06:26:16;;;;;;;7.00;4.80;;;7.40;99.90;;;;;;5092483;28;20030;-68
2022/10/20 06:28:44;;;;;;;8.20;5.35;;;7.40;99.80;;;;;;5073636;28;20078;-68
2022/10/20 06:31:27;;;;;;;8.40;4.97;;;7.40;99.80;;;;;;5072186;28;20028;-69
2022/10/20 06:33:54;;;;;;;7.95;5.22;;;7.40;99.90;;;;;;5073076;28;20043;-68
2022/10/20 06:36:20;;;;;;;11.65;6.38;;;7.40;99.90;;;;;;5089336;28;20495;-68
2022/10/20 06:38:47;;;;;;;8.98;5.50;;;7.40;99.90;;;;;;5074897;28;20029;-68
2022/10/20 06:41:16;;;;;;;7.05;4.68;;;7.40;99.90;;;;;;5092050;28;20534;-68
2022/10/20 06:43:43;;;;;;;8.75;5.10;;;7.40;99.90;;;;;;5073694;28;20082;-68
2022/10/20 06:46:17;;;;;;;9.35;5.45;;;7.40;99.90;;;;;;5071285;28;20040;-68
2022/10/20 06:48:43;;;;;;;11.18;6.45;;;7.40;99.90;;;;;;5073004;28;20024;-68
2022/10/20 06:51:15;;;;;;;7.78;5.40;;;7.50;99.90;;;;;;5090025;28;20028;-68
2022/10/20 06:53:42;;;;;;;8.57;4.90;;;7.50;99.90;;;;;;5072042;28;20027;-68
2022/10/20 06:56:14;;;;;;;8.60;5.32;;;7.50;99.90;;;;;;5090919;28;20020;-68
2022/10/20 06:58:42;;;;;;;9.93;5.75;;;7.50;99.90;;;;;;5056826;28;20040;-69
2022/10/20 07:01:13;;;;;;;10.82;7.10;;;7.50;99.90;;;;;;5084273;28;20041;-69
2022/10/20 07:03:39;;;;;;;10.63;6.13;;;7.50;99.90;;;;;;5078308;28;20035;-69
2022/10/20 07:06:07;;;;;;;10.82;6.40;;;7.60;99.90;;;;;;5058836;28;20032;-74
2022/10/20 07:08:34;;;;;;;8.27;5.20;;;7.70;99.90;;;;;;5067983;28;20047;-68
2022/10/20 07:11:05;;;;;;;11.00;5.50;;;7.70;99.90;;;;;;5090601;28;20032;-65
2022/10/20 07:13:32;;;;;;;11.25;6.20;;;7.80;99.90;;;;;;5073190;28;20549;-65
2022/10/20 07:15:58;;;;;;;10.88;5.70;;;7.80;99.90;;;;;;5089626;28;20123;-66
2022/10/20 07:18:26;;;;;;;12.05;6.70;;;7.80;99.90;;;;;;5085439;28;20024;-66
2022/10/20 07:20:55;;;;;;;10.30;6.05;;;7.90;99.90;;;;;;5070978;28;20542;-64
2022/10/20 07:23:21;;;;;;;12.98;6.45;;;7.90;99.90;;;;;;5068836;28;20051;-66
2022/10/20 07:25:47;;;;;;;13.38;5.80;;;8.00;99.90;;;;;;5086905;28;20397;-66
2022/10/20 07:28:12;;;;;;;10.30;5.70;;;8.00;99.90;;;;;;5077394;28;20040;-66
2022/10/20 07:30:39;;;;;;;9.65;5.72;;;8.10;99.90;;;;;;5078185;28;20441;-65
2022/10/20 07:33:06;;;;;;;9.85;5.65;;;8.20;99.90;;;;;;5078602;28;20043;-66
2022/10/20 07:35:33;;;;;;;8.65;5.65;;;8.20;99.90;;;;;;5073206;28;20032;-65
2022/10/20 07:37:59;;;;;;;9.52;6.13;;;8.30;99.90;;;;;;5075958;28;20031;-67
2022/10/20 07:40:25;;;;;;;8.80;5.38;;;8.40;99.90;;;;;;5076835;28;20032;-66
2022/10/20 07:42:50;;;;;;;10.00;6.78;;;8.50;99.90;;;;;;5070116;28;20040;-66
2022/10/20 07:45:16;;;;;;;10.93;5.75;;;8.50;99.90;;;;;;5082077;28;20063;-66
2022/10/20 07:47:43;;;;;;;11.77;6.18;;;8.60;99.90;;;;;;5077857;28;20391;-66
2022/10/20 07:50:09;;;;;;;10.00;6.03;;;8.60;99.90;;;;;;5084803;28;20055;-66
2022/10/20 07:52:35;;;;;;;10.80;6.13;;;8.80;99.90;;;;;;5080758;28;20016;-66
2022/10/20 07:55:01;;;;;;;8.30;5.70;;;8.80;99.90;;;;;;5082390;28;20030;-66
2022/10/20 07:57:26;;;;;;;7.70;5.25;;;8.90;99.90;;;;;;5080818;28;20472;-65
2022/10/20 07:59:52;;;;;;;11.15;5.50;;;8.90;99.90;;;;;;5081349;28;20046;-65
2022/10/20 08:02:22;;;;;;;10.82;5.60;;;9.00;99.90;;;;;;5083448;28;20052;-66
2022/10/20 08:04:49;;;;;;;10.55;5.55;;;9.10;99.90;;;;;;5072227;28;20020;-66
2022/10/20 08:07:15;;;;;;;10.18;6.22;;;9.10;99.90;;;;;;5078009;28;20020;-66
2022/10/20 08:09:40;;;;;;;8.45;6.25;;;9.20;99.90;;;;;;5088269;28;20493;-65
2022/10/20 08:12:06;;;;;;;10.00;5.93;;;9.30;99.90;;;;;;5074686;28;20028;-66
2022/10/20 08:14:34;;;;;;;8.52;5.40;;;9.30;99.90;;;;;;5070509;28;20437;-66
2022/10/20 08:17:00;;;;;;;7.50;5.40;;;9.40;99.90;;;;;;5075526;28;20028;-66
2022/10/20 08:19:26;;;;;;;8.45;5.82;;;9.50;99.90;;;;;;5085131;28;20036;-67
2022/10/20 08:21:52;;;;;;;13.73;5.75;;;9.60;99.90;;;;;;5081956;28;20024;-66
2022/10/20 08:24:19;;;;;;;10.95;6.45;;;9.60;99.90;;;;;;5085093;28;20065;-67
2022/10/20 08:26:45;;;;;;;7.25;5.03;;;9.70;99.90;;;;;;5085360;28;20375;-67
2022/10/20 08:29:11;;;;;;;6.97;4.47;;;9.80;99.90;;;;;;5073693;28;20029;-66
2022/10/20 08:31:37;;;;;;;7.20;5.10;;;9.90;99.90;;;;;;5061482;28;20025;-66
2022/10/20 08:34:03;;;;;;;7.82;4.63;;;10.00;99.90;;;;;;5074039;28;20072;-66
2022/10/20 08:36:29;;;;;;;7.38;5.10;;;10.10;99.90;;;;;;5072197;28;20394;-65
2022/10/20 08:38:57;;;;;;;6.82;4.65;;;10.20;99.90;;;;;;5081830;28;20027;-65
2022/10/20 08:41:27;;;;;;;6.18;4.63;;;10.30;99.90;;;;;;5088869;28;20036;-66
2022/10/20 08:43:54;;;;;;;6.75;4.60;;;10.30;99.90;;;;;;5074219;28;20069;-66
2022/10/20 08:46:28;;;;;;;7.38;4.45;;;10.40;99.80;;;;;;5084360;28;20487;-66
2022/10/20 08:48:55;;;;;;;6.63;4.47;;;10.50;99.90;;;;;;5070165;28;20085;-66
2022/10/20 08:51:25;;;;;;;8.07;4.72;;;10.60;99.70;;;;;;5089136;28;20483;-66
2022/10/20 08:53:54;;;;;;;7.88;4.63;;;10.70;99.60;;;;;;5075833;28;20050;-65
2022/10/20 08:56:24;;;;;;;7.05;4.63;;;10.70;99.60;;;;;;5074520;28;20025;-68
2022/10/20 08:58:50;;;;;;;6.97;4.97;;;10.80;99.50;;;;;;5058630;28;20036;-68
2022/10/20 09:01:22;;;;;;;7.38;5.15;;;10.90;99.40;;;;;;5085472;28;20081;-68
2022/10/20 09:03:55;;;;;;;7.65;4.22;;;10.90;99.30;;;;;;5068383;28;20083;-68
2022/10/20 09:06:21;;;;;;;6.75;4.53;;;10.90;99.20;;;;;;5077220;28;20469;-68
2022/10/20 09:08:47;;;;;;;7.45;4.53;;;11.00;99.10;;;;;;5073194;28;20260;-68
2022/10/20 09:11:21;;;;;;;7.97;5.22;;;11.00;99.20;;;;;;5070307;28;20503;-68
2022/10/20 09:13:47;;;;;;;8.02;5.07;;;11.10;99.00;;;;;;5062820;28;20028;-69
2022/10/20 09:16:26;;;;;;;7.03;4.53;;;11.10;98.90;;;;;;5084586;28;20070;-67
2022/10/20 09:18:56;;;;;;;7.78;4.07;;;11.20;98.80;;;;;;5088198;28;20028;-68
2022/10/20 09:21:22;;;;;;;6.97;4.65;;;11.20;98.70;;;;;;5070138;28;20561;-67
2022/10/20 09:23:54;;;;;;;8.70;4.55;;;11.30;98.60;;;;;;5071166;28;20033;-65
2022/10/20 09:26:22;;;;;;;8.48;4.70;;;11.30;98.60;;;;;;5088232;28;20146;-67
2022/10/20 09:28:50;;;;;;;8.10;4.60;;;11.40;98.70;;;;;;5076759;28;20052;-66
2022/10/20 09:31:31;;;;;;;8.93;5.03;;;11.50;98.60;;;;;;5085947;28;20082;-67
2022/10/20 09:33:57;;;;;;;6.13;4.88;;;11.50;98.50;;;;;;5074943;28;20060;-67
2022/10/20 09:36:28;;;;;;;6.75;4.30;;;11.60;98.50;;;;;;5071753;28;20389;-66
2022/10/20 09:38:54;;;;;;;5.95;4.30;;;11.60;98.50;;;;;;5070410;28;20033;-66
2022/10/20 09:41:23;;;;;;;6.32;4.72;;;11.60;98.30;;;;;;5085984;28;20036;-67
2022/10/20 09:44:02;;;;;;;7.88;4.13;;;11.70;98.30;;;;;;5073443;28;20040;-67
2022/10/20 09:46:33;;;;;;;9.07;5.35;;;11.80;98.30;;;;;;5075461;28;20152;-67
2022/10/20 09:48:59;;;;;;;12.20;5.28;;;11.80;98.10;;;;;;5070700;28;20035;-67
2022/10/20 09:51:27;;;;;;;7.65;4.15;;;11.80;98.20;;;;;;5087122;28;20151;-67
2022/10/20 09:54:03;;;;;;;6.88;4.65;;;11.90;98.10;;;;;;5073849;28;20391;-66
2022/10/20 09:56:32;;;;;;;7.03;4.68;;;12.00;98.10;;;;;;5073555;28;20090;-66
2022/10/20 09:59:00;;;;;;;7.03;4.32;;;12.00;98.10;;;;;;5074284;28;20093;-67
2022/10/20 10:01:26;;;;;;;6.43;4.53;;;12.10;98.10;;;;;;5079816;28;20047;-67
2022/10/20 10:04:00;;;;;;;7.65;4.80;;;12.10;98.10;;;;;;5072351;28;20381;-67
2022/10/20 10:06:41;;;;;;;11.43;4.22;;;12.20;98.00;;;;;;5076724;28;20039;-67
2022/10/20 10:09:36;;;;;;;9.15;4.05;;;12.30;98.00;;;;;;5071051;28;20048;-67
2022/10/20 10:12:22;;;;;;;;;;;12.40;97.90;;;;;;5059191;28;20487;-67
2022/10/20 10:15:22;;;;;;;7.45;3.70;;;12.40;97.80;;;;;;5083321;28;19915;-67
2022/10/20 10:17:48;;;;;;;6.07;3.35;;;12.50;97.60;;;;;;5071012;28;20032;-67
2022/10/20 10:20:15;;;;;;;4.80;3.25;;;12.50;97.40;;;;;;5070693;28;20047;-67
2022/10/20 10:22:42;;;;;;;6.18;3.53;;;12.60;97.10;;;;;;5070094;28;20370;-67
2022/10/20 10:25:26;;;;;;;4.55;3.05;;;12.70;97.10;;;;;;5070251;28;20413;-68
2022/10/20 10:28:05;;;;;;;6.10;3.30;;;12.80;96.80;;;;;;5068827;28;20735;-67
2022/10/20 10:30:34;;;;;;;4.97;3.17;;;12.80;96.60;;;;;;5077740;28;20087;-67
2022/10/20 10:33:00;;;;;;;5.00;3.22;;;12.90;96.40;;;;;;5073508;28;20078;-67
2022/10/20 10:35:41;;;;;;;7.13;3.00;;;12.90;96.40;;;;;;5071355;28;20032;-67
2022/10/20 10:38:12;;;;;;;8.48;4.43;;;13.00;96.20;;;;;;5084811;28;20031;-68
2022/10/20 10:41:03;;;;;;;6.43;3.10;;;13.10;96.10;;;;;;5083478;28;20028;-66
2022/10/20 10:43:54;;;;;;;5.95;2.95;;;13.10;95.80;;;;;;5069386;28;20067;-67
2022/10/20 10:46:27;;;;;;;5.13;2.80;;;13.20;95.70;;;;;;5083903;28;20046;-67
2022/10/20 10:49:23;;;;;;;6.25;3.20;;;13.30;95.80;;;;;;5070874;28;20036;-68
2022/10/20 10:52:08;;;;;;;6.38;2.92;;;13.30;95.70;;;;;;5070126;28;20044;-68
2022/10/20 10:54:51;;;;;;;7.30;3.35;;;13.30;95.50;;;;;;5072825;28;20032;-68
2022/10/20 10:57:39;;;;;;;5.35;3.00;;;13.40;95.50;;;;;;5078402;28;20028;-68
2022/10/20 11:00:16;;;;;;;4.63;3.15;;;13.50;95.60;;;;;;5070317;28;20032;-68
2022/10/20 11:03:14;;;;;;;5.18;3.42;;;13.50;95.30;;;;;;5069566;28;20033;-68
2022/10/20 11:06:16;;;;;;;6.65;3.00;;;13.60;95.00;;;;;;5069996;28;20032;-68
2022/10/20 11:09:01;;;;;;;6.05;3.50;;;13.60;95.00;;;;;;4986199;28;20125;-68
2022/10/20 11:11:55;;;;;;;4.05;3.03;;;13.60;94.90;;;;;;5065967;28;20097;-67
2022/10/20 11:14:48;;;;;;;5.77;3.47;;;13.60;94.80;;;;;;5067784;28;20029;-68
2022/10/20 11:17:49;;;;;;;4.75;2.80;;;13.70;94.80;;;;;;5066205;28;20033;-68
2022/10/20 11:20:23;;;;;;;5.57;3.00;;;13.70;94.70;;;;;;5049823;28;20079;-68
2022/10/20 11:23:07;;;;;;;7.50;2.58;;;13.80;94.60;;;;;;5071701;28;20167;-68
2022/10/20 11:25:59;;;;;;;4.80;2.77;;;13.90;94.50;;;;;;5079616;28;20068;-68
2022/10/20 11:28:45;;;;;;;5.57;3.05;;;13.90;94.40;;;;;;5074163;28;20279;-67
2022/10/20 11:31:53;;;;;;;3.58;2.80;;;14.00;94.20;;;;;;5074097;28;20025;-68
2022/10/20 11:34:51;;;;;;;6.90;2.40;;;14.00;93.40;;;;;;5070855;28;20052;-68
2022/10/20 11:37:42;;;;;;;5.88;2.45;;;14.10;93.60;;;;;;5060371;28;20029;-68
2022/10/20 11:40:11;;;;;;;5.15;2.65;;;14.10;93.50;;;;;;5074571;28;20039;-68
2022/10/20 11:42:56;;;;;;;2.78;2.00;;;14.20;93.50;;;;;;5074860;28;20036;-68
2022/10/20 11:45:27;;;;;;;3.83;2.53;;;14.30;93.50;;;;;;5072982;28;20225;-67
2022/10/20 11:48:05;;;;;;;4.53;2.60;;;14.30;93.40;;;;;;5074327;28;20032;-68
2022/10/20 11:50:32;;;;;;;4.55;2.42;;;14.30;93.30;;;;;;5080594;28;20059;-68
2022/10/20 11:53:25;;;;;;;5.40;2.05;;;14.40;93.30;;;;;;5080710;28;20074;-68
2022/10/20 11:56:19;;;;;;;3.75;2.17;;;14.40;93.10;;;;;;5068833;28;20040;-67
2022/10/20 11:59:15;;;;;;;4.18;2.38;;;14.50;93.10;;;;;;5073148;28;20529;-68
2022/10/20 12:02:02;;;;;;;5.18;2.40;;;14.50;92.80;;;;;;5077675;28;20127;-67
2022/10/20 12:04:55;;;;;;;4.68;2.35;;;14.60;92.80;;;;;;5054725;28;20362;-67
2022/10/20 12:07:51;;;;;;;3.47;2.20;;;14.60;92.70;;;;;;5055359;28;20029;-68
2022/10/20 12:10:33;;;;;;;3.95;2.30;;;14.60;92.50;;;;;;5061625;28;20024;-67
2022/10/20 12:13:14;;;;;;;6.38;2.95;;;14.60;92.50;;;;;;5074613;28;20024;-67
2022/10/20 12:15:48;;;;;;;3.75;2.20;;;14.60;92.50;;;;;;5073401;28;20231;-66
2022/10/20 12:18:33;;;;;;;4.95;2.17;;;14.70;92.30;;;;;;5074211;28;20032;-67
2022/10/20 12:21:09;;;;;;;4.57;2.50;;;14.70;92.20;;;;;;5078139;28;20095;-67
2022/10/20 12:23:48;;;;;;;4.10;2.40;;;14.70;92.00;;;;;;5070543;28;20040;-67
2022/10/20 12:26:29;;;;;;;3.65;2.20;;;14.70;91.80;;;;;;5073381;28;20582;-67
2022/10/20 12:28:59;;;;;;;2.97;2.15;;;14.80;91.90;;;;;;5092689;28;20032;-67
2022/10/20 12:32:03;;;;;;;4.28;2.20;;;14.80;91.60;;;;;;5076467;28;20356;-67
2022/10/20 12:34:39;;;;;;;6.00;2.50;;;14.80;91.30;;;;;;5070650;28;20937;-67
2022/10/20 12:37:18;;;;;;;5.45;2.60;;;14.90;91.70;;;;;;5082233;28;20395;-68
2022/10/20 12:39:45;;;;;;;3.90;2.03;;;14.90;91.50;;;;;;5060110;28;20029;-67
2022/10/20 12:42:32;;;;;;;3.33;2.33;;;14.90;91.40;;;;;;5093590;28;20471;-66
2022/10/20 12:45:06;;;;;;;3.22;2.22;;;14.90;91.10;;;;;;5077105;28;20536;-66
2022/10/20 12:47:34;;;;;;;3.22;2.08;;;15.00;91.00;;;;;;5085035;28;20459;-67
2022/10/20 12:50:04;;;;;;;4.70;2.40;;;15.00;91.10;;;;;;5072557;28;20044;-67
2022/10/20 12:52:32;;;;;;;2.97;2.00;;;15.00;91.10;;;;;;5088805;28;20074;-67
2022/10/20 12:55:17;;;;;;;5.25;2.72;;;15.10;90.90;;;;;;5086738;28;20378;-67
2022/10/20 12:57:44;;;;;;;3.63;2.33;;;15.10;90.70;;;;;;5059710;28;20828;-67
2022/10/20 13:00:22;;;;;;;6.10;2.42;;;15.10;90.80;;;;;;5064209;28;20653;-67
2022/10/20 13:02:59;;;;;;;4.18;2.53;;;15.20;90.70;;;;;;5062624;28;20632;-67
2022/10/20 13:05:39;;;;;;;4.10;2.25;;;15.30;90.60;;;;;;5072662;28;20105;-66
2022/10/20 13:08:23;;;;;;;3.70;2.58;;;15.30;90.80;;;;;;5081332;28;20502;-67
2022/10/20 13:10:52;;;;;;;7.20;2.70;;;15.30;90.70;;;;;;5085686;28;20024;-67
2022/10/20 13:13:18;;;;;;;5.72;2.38;;;15.40;90.60;;;;;;5082384;28;20538;-67
2022/10/20 13:15:49;;;;;;;3.55;2.47;;;15.40;90.50;;;;;;5055204;28;20025;-68
2022/10/20 13:18:25;;;;;;;4.53;2.70;;;15.50;90.50;;;;;;5060460;28;20653;-68